sensor_id;sensor_type;location;lat;lon;timestamp;temperature;humidity
21493;DHT22;10908;50.690;4.400;2024-01-11T00:00:59;-3273.50;73.70
21493;DHT22;10908;50.690;4.400;2024-01-11T00:03:25;-3273.30;73.90
21493;DHT22;10908;50.690;4.400;2024-01-11T00:05:50;-3273.20;74.40
21493;DHT22;10908;50.690;4.400;2024-01-11T00:08:16;-3273.20;74.90
21493;DHT22;10908;50.690;4.400;2024-01-11T00:10:42;-3273.20;75.10
21493;DHT22;10908;50.690;4.400;2024-01-11T00:13:08;-3273.20;74.90
21493;DHT22;10908;50.690;4.400;2024-01-11T00:15:33;-3273.20;75.10
21493;DHT22;10908;50.690;4.400;2024-01-11T00:17:59;-3273.10;75.20
21493;DHT22;10908;50.690;4.400;2024-01-11T00:20:25;-3273.10;75.20
21493;DHT22;10908;50.690;4.400;2024-01-11T00:22:50;-3273.20;75.60
21493;DHT22;10908;50.690;4.400;2024-01-11T00:25:17;-3273.20;75.30
21493;DHT22;10908;50.690;4.400;2024-01-11T00:27:43;-3273.10;75.10
21493;DHT22;10908;50.690;4.400;2024-01-11T00:30:08;-3273.10;75.50
21493;DHT22;10908;50.690;4.400;2024-01-11T00:32:34;-3273.20;75.50
21493;DHT22;10908;50.690;4.400;2024-01-11T00:35:00;-3273.30;75.10
21493;DHT22;10908;50.690;4.400;2024-01-11T00:37:26;-3273.30;74.90
21493;DHT22;10908;50.690;4.400;2024-01-11T00:39:52;-3273.20;74.80
21493;DHT22;10908;50.690;4.400;2024-01-11T00:42:17;-3273.00;75.10
21493;DHT22;10908;50.690;4.400;2024-01-11T00:44:43;-3273.00;75.50
21493;DHT22;10908;50.690;4.400;2024-01-11T00:47:10;-3273.10;75.50
21493;DHT22;10908;50.690;4.400;2024-01-11T00:49:36;-3273.20;75.30
21493;DHT22;10908;50.690;4.400;2024-01-11T00:52:02;-3273.20;75.10
21493;DHT22;10908;50.690;4.400;2024-01-11T00:54:28;-3273.30;75.30
21493;DHT22;10908;50.690;4.400;2024-01-11T00:56:53;-3273.50;75.00
21493;DHT22;10908;50.690;4.400;2024-01-11T00:59:19;-3273.50;74.40
21493;DHT22;10908;50.690;4.400;2024-01-11T01:01:48;-3273.30;74.30
21493;DHT22;10908;50.690;4.400;2024-01-11T01:04:14;-3273.20;74.50
21493;DHT22;10908;50.690;4.400;2024-01-11T01:06:41;-3273.20;74.80
21493;DHT22;10908;50.690;4.400;2024-01-11T01:09:07;-3273.30;75.00
21493;DHT22;10908;50.690;4.400;2024-01-11T01:11:32;-3273.30;75.10
21493;DHT22;10908;50.690;4.400;2024-01-11T01:13:58;-3273.30;74.40
21493;DHT22;10908;50.690;4.400;2024-01-11T01:16:24;-3273.30;74.50
21493;DHT22;10908;50.690;4.400;2024-01-11T01:18:49;-3273.10;74.60
21493;DHT22;10908;50.690;4.400;2024-01-11T01:21:15;-3273.10;75.40
21493;DHT22;10908;50.690;4.400;2024-01-11T01:23:40;-3273.10;75.10
21493;DHT22;10908;50.690;4.400;2024-01-11T01:26:06;-3273.10;75.30
21493;DHT22;10908;50.690;4.400;2024-01-11T01:28:32;-3273.00;75.50
21493;DHT22;10908;50.690;4.400;2024-01-11T01:30:58;-3273.10;75.40
21493;DHT22;10908;50.690;4.400;2024-01-11T01:33:23;-3273.00;75.40
21493;DHT22;10908;50.690;4.400;2024-01-11T01:35:49;-3273.00;75.50
21493;DHT22;10908;50.690;4.400;2024-01-11T01:38:15;-3272.90;75.50
21493;DHT22;10908;50.690;4.400;2024-01-11T01:40:43;-3272.90;75.50
21493;DHT22;10908;50.690;4.400;2024-01-11T01:43:09;-3272.80;75.70
21493;DHT22;10908;50.690;4.400;2024-01-11T01:45:35;-3272.70;76.00
21493;DHT22;10908;50.690;4.400;2024-01-11T01:48:02;-3272.70;76.30
21493;DHT22;10908;50.690;4.400;2024-01-11T01:50:28;-3272.70;76.30
21493;DHT22;10908;50.690;4.400;2024-01-11T01:52:55;-3272.70;76.40
21493;DHT22;10908;50.690;4.400;2024-01-11T01:55:22;-3272.70;76.50
21493;DHT22;10908;50.690;4.400;2024-01-11T01:57:49;-3272.70;76.40
21493;DHT22;10908;50.690;4.400;2024-01-11T02:00:15;-3272.70;76.60
21493;DHT22;10908;50.690;4.400;2024-01-11T02:02:43;-3272.70;76.40
21493;DHT22;10908;50.690;4.400;2024-01-11T02:05:13;-3272.70;76.60
21493;DHT22;10908;50.690;4.400;2024-01-11T02:07:40;-3272.80;76.40
21493;DHT22;10908;50.690;4.400;2024-01-11T02:10:07;-3272.80;76.10
21493;DHT22;10908;50.690;4.400;2024-01-11T02:12:36;-3272.70;76.30
21493;DHT22;10908;50.690;4.400;2024-01-11T02:15:05;-3272.80;76.50
21493;DHT22;10908;50.690;4.400;2024-01-11T02:17:32;-3272.80;76.50
21493;DHT22;10908;50.690;4.400;2024-01-11T02:19:57;-3272.80;76.30
21493;DHT22;10908;50.690;4.400;2024-01-11T02:22:34;-3272.80;76.30
21493;DHT22;10908;50.690;4.400;2024-01-11T02:25:00;-3272.80;76.00
21493;DHT22;10908;50.690;4.400;2024-01-11T02:27:26;-3272.80;76.10
21493;DHT22;10908;50.690;4.400;2024-01-11T02:29:51;-3272.70;76.30
21493;DHT22;10908;50.690;4.400;2024-01-11T02:32:17;-3272.70;76.40
21493;DHT22;10908;50.690;4.400;2024-01-11T02:34:43;-3272.70;76.50
21493;DHT22;10908;50.690;4.400;2024-01-11T02:37:09;-3272.70;76.60
21493;DHT22;10908;50.690;4.400;2024-01-11T02:39:35;-3272.70;76.50
21493;DHT22;10908;50.690;4.400;2024-01-11T02:42:01;-3272.60;76.50
21493;DHT22;10908;50.690;4.400;2024-01-11T02:44:27;-3272.60;76.60
21493;DHT22;10908;50.690;4.400;2024-01-11T02:46:53;-3272.60;76.80
21493;DHT22;10908;50.690;4.400;2024-01-11T02:49:18;-3272.60;76.70
21493;DHT22;10908;50.690;4.400;2024-01-11T02:51:44;-3272.60;76.80
21493;DHT22;10908;50.690;4.400;2024-01-11T02:54:10;-3272.60;76.90
21493;DHT22;10908;50.690;4.400;2024-01-11T02:56:36;-3272.70;76.80
21493;DHT22;10908;50.690;4.400;2024-01-11T02:59:01;-3272.60;76.50
21493;DHT22;10908;50.690;4.400;2024-01-11T03:01:27;-3272.80;76.70
21493;DHT22;10908;50.690;4.400;2024-01-11T03:03:53;-3272.60;76.40
21493;DHT22;10908;50.690;4.400;2024-01-11T03:06:19;-3272.50;76.70
21493;DHT22;10908;50.690;4.400;2024-01-11T03:08:50;-3272.50;77.00
21493;DHT22;10908;50.690;4.400;2024-01-11T03:11:16;-3272.60;77.10
21493;DHT22;10908;50.690;4.400;2024-01-11T03:13:42;-3272.60;77.00
21493;DHT22;10908;50.690;4.400;2024-01-11T03:16:07;-3272.60;76.70
21493;DHT22;10908;50.690;4.400;2024-01-11T03:18:33;-3272.70;76.70
21493;DHT22;10908;50.690;4.400;2024-01-11T03:20:59;-3272.70;76.50
21493;DHT22;10908;50.690;4.400;2024-01-11T03:23:24;-3272.80;76.50
21493;DHT22;10908;50.690;4.400;2024-01-11T03:25:50;-3272.80;76.30
21493;DHT22;10908;50.690;4.400;2024-01-11T03:28:16;-3273.00;76.30
21493;DHT22;10908;50.690;4.400;2024-01-11T03:30:41;-3272.90;75.80
21493;DHT22;10908;50.690;4.400;2024-01-11T03:33:07;-3273.00;75.70
21493;DHT22;10908;50.690;4.400;2024-01-11T03:35:32;-3273.00;75.60
21493;DHT22;10908;50.690;4.400;2024-01-11T03:37:58;-3273.10;75.30
21493;DHT22;10908;50.690;4.400;2024-01-11T03:40:24;-3273.10;74.90
21493;DHT22;10908;50.690;4.400;2024-01-11T03:42:49;-3272.90;75.00
21493;DHT22;10908;50.690;4.400;2024-01-11T03:45:18;-3272.90;75.40
21493;DHT22;10908;50.690;4.400;2024-01-11T03:47:44;-3273.00;75.40
21493;DHT22;10908;50.690;4.400;2024-01-11T03:50:10;-3273.00;75.40
21493;DHT22;10908;50.690;4.400;2024-01-11T03:52:36;-3273.00;75.40
21493;DHT22;10908;50.690;4.400;2024-01-11T03:55:02;-3273.20;75.20
21493;DHT22;10908;50.690;4.400;2024-01-11T03:57:27;-3273.10;74.90
21493;DHT22;10908;50.690;4.400;2024-01-11T03:59:53;-3273.20;74.90
21493;DHT22;10908;50.690;4.400;2024-01-11T04:02:19;-3273.30;74.40
21493;DHT22;10908;50.690;4.400;2024-01-11T04:04:44;-3273.20;74.40
21493;DHT22;10908;50.690;4.400;2024-01-11T04:07:10;-3273.00;74.30
21493;DHT22;10908;50.690;4.400;2024-01-11T04:09:38;-3272.90;74.50
21493;DHT22;10908;50.690;4.400;2024-01-11T04:12:04;-3272.90;74.90
21493;DHT22;10908;50.690;4.400;2024-01-11T04:14:31;-3272.90;75.20
21493;DHT22;10908;50.690;4.400;2024-01-11T04:16:56;-3272.80;75.20
21493;DHT22;10908;50.690;4.400;2024-01-11T04:19:22;-3272.60;75.40
21493;DHT22;10908;50.690;4.400;2024-01-11T04:21:48;-3272.70;75.80
21493;DHT22;10908;50.690;4.400;2024-01-11T04:24:13;-3272.70;75.70
21493;DHT22;10908;50.690;4.400;2024-01-11T04:26:39;-3272.50;75.50
21493;DHT22;10908;50.690;4.400;2024-01-11T04:29:05;-3272.50;75.80
21493;DHT22;10908;50.690;4.400;2024-01-11T04:31:43;-3272.60;75.90
21493;DHT22;10908;50.690;4.400;2024-01-11T04:34:09;-3272.50;75.90
21493;DHT22;10908;50.690;4.400;2024-01-11T04:36:37;-3272.40;76.10
21493;DHT22;10908;50.690;4.400;2024-01-11T04:39:03;-3272.50;76.40
21493;DHT22;10908;50.690;4.400;2024-01-11T04:41:29;-3272.40;76.20
21493;DHT22;10908;50.690;4.400;2024-01-11T04:43:55;-3272.40;76.30
21493;DHT22;10908;50.690;4.400;2024-01-11T04:46:21;-3272.40;76.40
21493;DHT22;10908;50.690;4.400;2024-01-11T04:48:48;-3272.30;76.30
21493;DHT22;10908;50.690;4.400;2024-01-11T04:51:15;-3272.40;76.40
21493;DHT22;10908;50.690;4.400;2024-01-11T04:53:42;-3272.50;76.40
21493;DHT22;10908;50.690;4.400;2024-01-11T04:56:08;-3272.50;76.20
21493;DHT22;10908;50.690;4.400;2024-01-11T04:58:35;-3272.40;76.20
21493;DHT22;10908;50.690;4.400;2024-01-11T05:01:00;-3272.50;76.10
21493;DHT22;10908;50.690;4.400;2024-01-11T05:03:27;-3272.60;76.40
21493;DHT22;10908;50.690;4.400;2024-01-11T05:05:53;-3272.70;76.20
21493;DHT22;10908;50.690;4.400;2024-01-11T05:08:18;-3272.60;76.00
21493;DHT22;10908;50.690;4.400;2024-01-11T05:10:44;-3272.80;76.10
21493;DHT22;10908;50.690;4.400;2024-01-11T05:13:10;-3272.70;75.70
21493;DHT22;10908;50.690;4.400;2024-01-11T05:15:36;-3272.80;75.80
21493;DHT22;10908;50.690;4.400;2024-01-11T05:18:01;-3272.70;75.40
21493;DHT22;10908;50.690;4.400;2024-01-11T05:20:27;-3272.70;75.70
21493;DHT22;10908;50.690;4.400;2024-01-11T05:22:53;-3272.70;75.90
21493;DHT22;10908;50.690;4.400;2024-01-11T05:25:19;-3273.00;75.80
21493;DHT22;10908;50.690;4.400;2024-01-11T05:27:45;-3273.00;75.50
21493;DHT22;10908;50.690;4.400;2024-01-11T05:30:11;-3272.90;75.10
21493;DHT22;10908;50.690;4.400;2024-01-11T05:32:37;-3273.00;75.20
21493;DHT22;10908;50.690;4.400;2024-01-11T05:35:02;-3272.90;75.00
21493;DHT22;10908;50.690;4.400;2024-01-11T05:37:28;-3272.70;75.10
21493;DHT22;10908;50.690;4.400;2024-01-11T05:39:54;-3273.00;75.30
21493;DHT22;10908;50.690;4.400;2024-01-11T05:42:19;-3272.90;74.90
21493;DHT22;10908;50.690;4.400;2024-01-11T05:44:45;-3273.00;75.40
21493;DHT22;10908;50.690;4.400;2024-01-11T05:47:11;-3273.00;75.00
21493;DHT22;10908;50.690;4.400;2024-01-11T05:49:36;-3272.90;74.90
21493;DHT22;10908;50.690;4.400;2024-01-11T05:55:26;-3272.90;74.80
21493;DHT22;10908;50.690;4.400;2024-01-11T05:57:58;-3272.80;75.50
21493;DHT22;10908;50.690;4.400;2024-01-11T06:00:24;-3272.80;75.50
21493;DHT22;10908;50.690;4.400;2024-01-11T06:02:50;-3272.80;75.30
21493;DHT22;10908;50.690;4.400;2024-01-11T06:05:16;-3272.70;75.60
21493;DHT22;10908;50.690;4.400;2024-01-11T06:07:42;-3273.00;75.70
21493;DHT22;10908;50.690;4.400;2024-01-11T06:10:08;-3273.00;75.40
21493;DHT22;10908;50.690;4.400;2024-01-11T06:12:34;-3272.70;75.30
21493;DHT22;10908;50.690;4.400;2024-01-11T06:15:01;-3272.50;75.70
21493;DHT22;10908;50.690;4.400;2024-01-11T06:17:27;-3272.60;76.00
21493;DHT22;10908;50.690;4.400;2024-01-11T06:19:52;-3272.60;76.40
21493;DHT22;10908;50.690;4.400;2024-01-11T06:22:18;-3272.70;76.30
21493;DHT22;10908;50.690;4.400;2024-01-11T06:24:44;-3272.60;76.00
21493;DHT22;10908;50.690;4.400;2024-01-11T06:27:10;-3272.60;76.00
21493;DHT22;10908;50.690;4.400;2024-01-11T06:29:35;-3272.50;76.50
21493;DHT22;10908;50.690;4.400;2024-01-11T06:32:01;-3272.40;76.90
21493;DHT22;10908;50.690;4.400;2024-01-11T06:34:27;-3272.30;77.70
21493;DHT22;10908;50.690;4.400;2024-01-11T06:36:54;-3272.10;78.00
21493;DHT22;10908;50.690;4.400;2024-01-11T06:39:20;-3272.00;78.70
21493;DHT22;10908;50.690;4.400;2024-01-11T06:41:46;-3272.10;79.30
21493;DHT22;10908;50.690;4.400;2024-01-11T06:44:11;-3272.00;79.50
21493;DHT22;10908;50.690;4.400;2024-01-11T06:46:37;-3271.90;79.60
21493;DHT22;10908;50.690;4.400;2024-01-11T06:49:05;-3272.00;80.00
21493;DHT22;10908;50.690;4.400;2024-01-11T06:51:30;-3272.00;80.00
21493;DHT22;10908;50.690;4.400;2024-01-11T06:53:57;-3272.20;80.00
21493;DHT22;10908;50.690;4.400;2024-01-11T06:56:22;-3272.10;79.60
21493;DHT22;10908;50.690;4.400;2024-01-11T06:58:48;-3272.00;79.60
21493;DHT22;10908;50.690;4.400;2024-01-11T07:01:15;-3272.10;79.90
21493;DHT22;10908;50.690;4.400;2024-01-11T07:03:40;-3272.20;79.60
21493;DHT22;10908;50.690;4.400;2024-01-11T07:06:07;-3272.30;79.70
21493;DHT22;10908;50.690;4.400;2024-01-11T07:08:32;-3272.40;79.30
21493;DHT22;10908;50.690;4.400;2024-01-11T07:11:03;-3272.20;78.80
21493;DHT22;10908;50.690;4.400;2024-01-11T07:13:29;-3272.00;79.10
21493;DHT22;10908;50.690;4.400;2024-01-11T07:15:55;-3271.90;79.80
21493;DHT22;10908;50.690;4.400;2024-01-11T07:18:23;-3272.00;80.10
21493;DHT22;10908;50.690;4.400;2024-01-11T07:20:50;-3271.80;80.20
21493;DHT22;10908;50.690;4.400;2024-01-11T07:23:16;-3271.90;81.00
21493;DHT22;10908;50.690;4.400;2024-01-11T07:25:42;-3271.80;80.60
21493;DHT22;10908;50.690;4.400;2024-01-11T07:28:08;-3271.90;80.90
21493;DHT22;10908;50.690;4.400;2024-01-11T07:30:34;-3271.90;80.60
21493;DHT22;10908;50.690;4.400;2024-01-11T07:33:00;-3271.90;80.30
21493;DHT22;10908;50.690;4.400;2024-01-11T07:35:26;-3271.90;80.70
21493;DHT22;10908;50.690;4.400;2024-01-11T07:37:52;-3271.80;80.70
21493;DHT22;10908;50.690;4.400;2024-01-11T07:40:17;-3272.00;81.10
21493;DHT22;10908;50.690;4.400;2024-01-11T07:42:44;-3272.00;80.60
21493;DHT22;10908;50.690;4.400;2024-01-11T07:45:11;-3272.10;80.50
21493;DHT22;10908;50.690;4.400;2024-01-11T07:47:37;-3271.90;80.10
21493;DHT22;10908;50.690;4.400;2024-01-11T07:50:07;-3272.00;80.50
21493;DHT22;10908;50.690;4.400;2024-01-11T07:52:35;-3271.90;80.20
21493;DHT22;10908;50.690;4.400;2024-01-11T07:55:02;-3271.70;80.80
21493;DHT22;10908;50.690;4.400;2024-01-11T07:57:36;-3271.60;81.30
21493;DHT22;10908;50.690;4.400;2024-01-11T08:00:03;-3271.60;81.60
21493;DHT22;10908;50.690;4.400;2024-01-11T08:02:29;-3271.70;81.80
21493;DHT22;10908;50.690;4.400;2024-01-11T08:04:55;-3271.70;81.80
21493;DHT22;10908;50.690;4.400;2024-01-11T08:07:20;-3271.70;81.90
21493;DHT22;10908;50.690;4.400;2024-01-11T08:09:47;-3271.70;81.70
21493;DHT22;10908;50.690;4.400;2024-01-11T08:12:16;-3271.60;81.80
21493;DHT22;10908;50.690;4.400;2024-01-11T08:14:42;-3271.70;82.20
21493;DHT22;10908;50.690;4.400;2024-01-11T08:17:08;-3271.80;82.10
21493;DHT22;10908;50.690;4.400;2024-01-11T08:19:34;-3272.00;82.10
21493;DHT22;10908;50.690;4.400;2024-01-11T08:22:00;-3272.00;81.60
21493;DHT22;10908;50.690;4.400;2024-01-11T08:24:26;-3271.90;80.90
21493;DHT22;10908;50.690;4.400;2024-01-11T08:26:52;-3271.80;81.20
21493;DHT22;10908;50.690;4.400;2024-01-11T08:29:18;-3271.80;81.60
21493;DHT22;10908;50.690;4.400;2024-01-11T08:31:47;-3271.80;81.60
21493;DHT22;10908;50.690;4.400;2024-01-11T08:34:13;-3271.90;81.70
21493;DHT22;10908;50.690;4.400;2024-01-11T08:36:39;-3272.00;81.80
21493;DHT22;10908;50.690;4.400;2024-01-11T08:39:06;-3272.10;81.70
21493;DHT22;10908;50.690;4.400;2024-01-11T08:41:32;-3272.20;81.10
21493;DHT22;10908;50.690;4.400;2024-01-11T08:43:59;-3272.10;80.80
21493;DHT22;10908;50.690;4.400;2024-01-11T08:46:28;-3272.50;81.10
21493;DHT22;10908;50.690;4.400;2024-01-11T08:48:54;-3272.50;80.40
21493;DHT22;10908;50.690;4.400;2024-01-11T08:51:21;-3272.30;79.80
21493;DHT22;10908;50.690;4.400;2024-01-11T08:53:47;-3272.10;80.40
21493;DHT22;10908;50.690;4.400;2024-01-11T08:56:12;-3272.30;80.90
21493;DHT22;10908;50.690;4.400;2024-01-11T08:58:40;-3272.40;80.90
21493;DHT22;10908;50.690;4.400;2024-01-11T09:01:06;-3272.60;80.50
21493;DHT22;10908;50.690;4.400;2024-01-11T09:03:34;-3272.40;79.90
21493;DHT22;10908;50.690;4.400;2024-01-11T09:06:02;-3272.40;80.50
21493;DHT22;10908;50.690;4.400;2024-01-11T09:08:27;-3272.30;80.30
21493;DHT22;10908;50.690;4.400;2024-01-11T09:10:53;-3272.20;80.60
21493;DHT22;10908;50.690;4.400;2024-01-11T09:13:19;-3272.20;81.10
21493;DHT22;10908;50.690;4.400;2024-01-11T09:15:45;-3272.30;81.10
21493;DHT22;10908;50.690;4.400;2024-01-11T09:18:10;-3272.50;81.20
21493;DHT22;10908;50.690;4.400;2024-01-11T09:20:36;-3272.50;80.30
21493;DHT22;10908;50.690;4.400;2024-01-11T09:23:02;-3272.50;80.40
21493;DHT22;10908;50.690;4.400;2024-01-11T09:25:32;-3272.60;80.30
21493;DHT22;10908;50.690;4.400;2024-01-11T09:27:58;-3272.50;80.10
21493;DHT22;10908;50.690;4.400;2024-01-11T09:30:24;-3272.60;80.40
21493;DHT22;10908;50.690;4.400;2024-01-11T09:32:49;-3272.60;79.70
21493;DHT22;10908;50.690;4.400;2024-01-11T09:35:15;-3272.70;80.10
21493;DHT22;10908;50.690;4.400;2024-01-11T09:37:41;-3272.70;79.90
21493;DHT22;10908;50.690;4.400;2024-01-11T09:40:08;-3272.90;80.00
21493;DHT22;10908;50.690;4.400;2024-01-11T09:42:39;-3272.90;79.30
21493;DHT22;10908;50.690;4.400;2024-01-11T09:45:12;-3273.10;79.20
21493;DHT22;10908;50.690;4.400;2024-01-11T09:47:39;-3273.20;78.70
21493;DHT22;10908;50.690;4.400;2024-01-11T09:50:06;-3273.00;78.20
21493;DHT22;10908;50.690;4.400;2024-01-11T09:52:33;-3272.90;78.90
21493;DHT22;10908;50.690;4.400;2024-01-11T09:54:59;-3272.90;78.80
21493;DHT22;10908;50.690;4.400;2024-01-11T09:57:29;-3273.00;78.70
21493;DHT22;10908;50.690;4.400;2024-01-11T09:59:57;-3273.20;78.90
21493;DHT22;10908;50.690;4.400;2024-01-11T10:02:24;-3273.30;78.00
21493;DHT22;10908;50.690;4.400;2024-01-11T10:04:52;-3273.20;77.60
21493;DHT22;10908;50.690;4.400;2024-01-11T10:07:21;-3273.20;77.80
21493;DHT22;10908;50.690;4.400;2024-01-11T10:09:47;-3273.30;77.70
21493;DHT22;10908;50.690;4.400;2024-01-11T10:12:13;-3273.50;77.40
21493;DHT22;10908;50.690;4.400;2024-01-11T10:14:39;-3273.50;77.20
21493;DHT22;10908;50.690;4.400;2024-01-11T10:17:06;-3273.70;76.50
21493;DHT22;10908;50.690;4.400;2024-01-11T10:19:32;-3273.70;76.70
21493;DHT22;10908;50.690;4.400;2024-01-11T10:21:58;-3273.80;76.00
21493;DHT22;10908;50.690;4.400;2024-01-11T10:24:26;-3273.80;75.80
21493;DHT22;10908;50.690;4.400;2024-01-11T10:26:55;-3273.70;75.10
21493;DHT22;10908;50.690;4.400;2024-01-11T10:29:21;-3273.80;75.80
21493;DHT22;10908;50.690;4.400;2024-01-11T10:31:47;-3273.80;75.30
21493;DHT22;10908;50.690;4.400;2024-01-11T10:34:13;-3273.90;75.70
21493;DHT22;10908;50.690;4.400;2024-01-11T10:36:38;-3274.10;75.40
21493;DHT22;10908;50.690;4.400;2024-01-11T10:39:07;-3274.20;74.50
21493;DHT22;10908;50.690;4.400;2024-01-11T10:41:39;-3274.20;73.70
21493;DHT22;10908;50.690;4.400;2024-01-11T10:44:17;-3274.20;74.30
21493;DHT22;10908;50.690;4.400;2024-01-11T10:46:45;-3274.30;73.90
21493;DHT22;10908;50.690;4.400;2024-01-11T10:49:11;-3274.30;73.40
21493;DHT22;10908;50.690;4.400;2024-01-11T10:51:42;-3274.30;73.10
21493;DHT22;10908;50.690;4.400;2024-01-11T10:54:09;-3274.40;73.50
21493;DHT22;10908;50.690;4.400;2024-01-11T10:56:36;-3274.60;73.10
21493;DHT22;10908;50.690;4.400;2024-01-11T10:59:04;-3274.60;72.40
21493;DHT22;10908;50.690;4.400;2024-01-11T11:01:30;-3274.80;72.60
21493;DHT22;10908;50.690;4.400;2024-01-11T11:03:57;-3274.80;71.90
21493;DHT22;10908;50.690;4.400;2024-01-11T11:06:23;-3274.80;71.70
21493;DHT22;10908;50.690;4.400;2024-01-11T11:08:50;-3274.90;71.90
21493;DHT22;10908;50.690;4.400;2024-01-11T11:11:17;-3275.00;71.90
21493;DHT22;10908;50.690;4.400;2024-01-11T11:13:47;-3275.30;71.40
21493;DHT22;10908;50.690;4.400;2024-01-11T11:16:15;-3275.30;70.90
21493;DHT22;10908;50.690;4.400;2024-01-11T11:18:41;-3275.40;70.40
21493;DHT22;10908;50.690;4.400;2024-01-11T11:21:09;-3275.50;69.80
21493;DHT22;10908;50.690;4.400;2024-01-11T11:23:37;-3275.50;70.10
21493;DHT22;10908;50.690;4.400;2024-01-11T11:26:06;-3275.50;69.10
21493;DHT22;10908;50.690;4.400;2024-01-11T11:28:32;-3275.50;69.20
21493;DHT22;10908;50.690;4.400;2024-01-11T11:31:00;-3275.60;69.40
21493;DHT22;10908;50.690;4.400;2024-01-11T11:33:29;-3275.70;68.70
21493;DHT22;10908;50.690;4.400;2024-01-11T11:35:59;-3275.80;68.80
21493;DHT22;10908;50.690;4.400;2024-01-11T11:38:27;-3275.80;68.80
21493;DHT22;10908;50.690;4.400;2024-01-11T11:40:57;-3275.80;68.50
21493;DHT22;10908;50.690;4.400;2024-01-11T11:43:26;-3275.90;69.10
21493;DHT22;10908;50.690;4.400;2024-01-11T11:45:53;-3276.00;68.20
21493;DHT22;10908;50.690;4.400;2024-01-11T11:51:08;-3276.10;68.00
21493;DHT22;10908;50.690;4.400;2024-01-11T11:53:38;-3276.40;67.80
21493;DHT22;10908;50.690;4.400;2024-01-11T11:56:05;-3276.50;66.30
21493;DHT22;10908;50.690;4.400;2024-01-11T11:58:32;-3276.60;65.60
21493;DHT22;10908;50.690;4.400;2024-01-11T12:00:59;-3276.70;65.40
21493;DHT22;10908;50.690;4.400;2024-01-11T12:03:29;-3276.60;64.90
21493;DHT22;10908;50.690;4.400;2024-01-11T12:05:55;-3276.70;65.20
21493;DHT22;10908;50.690;4.400;2024-01-11T12:08:22;-3276.70;64.50
21493;DHT22;10908;50.690;4.400;2024-01-11T12:10:48;-3276.70;64.80
21493;DHT22;10908;50.690;4.400;2024-01-11T12:13:14;-3276.50;65.10
21493;DHT22;10908;50.690;4.400;2024-01-11T12:15:40;-3276.70;65.50
21493;DHT22;10908;50.690;4.400;2024-01-11T12:18:07;-3276.70;65.10
21493;DHT22;10908;50.690;4.400;2024-01-11T12:20:33;-3276.70;65.00
21493;DHT22;10908;50.690;4.400;2024-01-11T12:22:59;0.00;64.40
21493;DHT22;10908;50.690;4.400;2024-01-11T12:25:25;0.00;64.70
21493;DHT22;10908;50.690;4.400;2024-01-11T12:27:52;0.00;64.00
21493;DHT22;10908;50.690;4.400;2024-01-11T12:30:17;0.00;64.00
21493;DHT22;10908;50.690;4.400;2024-01-11T12:32:43;0.00;64.00
21493;DHT22;10908;50.690;4.400;2024-01-11T12:35:11;0.00;63.60
21493;DHT22;10908;50.690;4.400;2024-01-11T12:37:36;0.10;64.30
21493;DHT22;10908;50.690;4.400;2024-01-11T12:40:02;0.00;63.60
21493;DHT22;10908;50.690;4.400;2024-01-11T12:42:29;0.00;64.20
21493;DHT22;10908;50.690;4.400;2024-01-11T12:44:55;0.10;64.10
21493;DHT22;10908;50.690;4.400;2024-01-11T12:47:21;0.30;63.60
21493;DHT22;10908;50.690;4.400;2024-01-11T12:49:47;0.40;62.80
21493;DHT22;10908;50.690;4.400;2024-01-11T12:52:19;0.40;62.40
21493;DHT22;10908;50.690;4.400;2024-01-11T12:54:52;0.20;62.40
21493;DHT22;10908;50.690;4.400;2024-01-11T12:57:21;0.10;62.30
21493;DHT22;10908;50.690;4.400;2024-01-11T12:59:47;0.30;62.40
21493;DHT22;10908;50.690;4.400;2024-01-11T13:02:13;0.40;62.50
21493;DHT22;10908;50.690;4.400;2024-01-11T13:04:40;0.50;62.40
21493;DHT22;10908;50.690;4.400;2024-01-11T13:07:09;0.50;62.30
21493;DHT22;10908;50.690;4.400;2024-01-11T13:09:35;0.60;61.20
21493;DHT22;10908;50.690;4.400;2024-01-11T13:12:01;0.60;61.00
21493;DHT22;10908;50.690;4.400;2024-01-11T13:14:27;0.70;60.80
21493;DHT22;10908;50.690;4.400;2024-01-11T13:16:54;0.70;60.50
21493;DHT22;10908;50.690;4.400;2024-01-11T13:19:20;0.60;60.10
21493;DHT22;10908;50.690;4.400;2024-01-11T13:21:46;0.60;60.70
21493;DHT22;10908;50.690;4.400;2024-01-11T13:24:11;0.70;61.10
21493;DHT22;10908;50.690;4.400;2024-01-11T13:26:38;0.80;60.50
21493;DHT22;10908;50.690;4.400;2024-01-11T13:29:05;0.80;60.30
21493;DHT22;10908;50.690;4.400;2024-01-11T13:31:32;0.80;61.70
21493;DHT22;10908;50.690;4.400;2024-01-11T13:33:58;0.90;61.30
21493;DHT22;10908;50.690;4.400;2024-01-11T13:36:24;0.80;60.80
21493;DHT22;10908;50.690;4.400;2024-01-11T13:38:50;0.80;61.70
21493;DHT22;10908;50.690;4.400;2024-01-11T13:41:16;0.70;61.50
21493;DHT22;10908;50.690;4.400;2024-01-11T13:43:43;0.70;61.50
21493;DHT22;10908;50.690;4.400;2024-01-11T13:46:09;0.70;61.70
21493;DHT22;10908;50.690;4.400;2024-01-11T13:48:34;0.70;61.40
21493;DHT22;10908;50.690;4.400;2024-01-11T13:51:01;0.60;61.70
21493;DHT22;10908;50.690;4.400;2024-01-11T13:53:28;0.60;62.00
21493;DHT22;10908;50.690;4.400;2024-01-11T13:55:54;0.70;62.10
21493;DHT22;10908;50.690;4.400;2024-01-11T13:58:21;0.90;61.70
21493;DHT22;10908;50.690;4.400;2024-01-11T14:00:47;0.90;61.60
21493;DHT22;10908;50.690;4.400;2024-01-11T14:03:13;1.00;61.20
21493;DHT22;10908;50.690;4.400;2024-01-11T14:05:38;1.00;60.90
21493;DHT22;10908;50.690;4.400;2024-01-11T14:08:04;0.90;60.90
21493;DHT22;10908;50.690;4.400;2024-01-11T14:10:34;0.90;61.70
21493;DHT22;10908;50.690;4.400;2024-01-11T14:13:00;0.80;62.10
21493;DHT22;10908;50.690;4.400;2024-01-11T14:15:26;0.90;62.00
21493;DHT22;10908;50.690;4.400;2024-01-11T14:17:53;1.00;61.80
21493;DHT22;10908;50.690;4.400;2024-01-11T14:20:18;0.90;61.90
21493;DHT22;10908;50.690;4.400;2024-01-11T14:22:45;0.90;62.00
21493;DHT22;10908;50.690;4.400;2024-01-11T14:25:22;0.90;62.20
21493;DHT22;10908;50.690;4.400;2024-01-11T14:27:50;0.90;62.30
21493;DHT22;10908;50.690;4.400;2024-01-11T14:30:16;0.90;62.40
21493;DHT22;10908;50.690;4.400;2024-01-11T14:32:42;0.90;62.50
21493;DHT22;10908;50.690;4.400;2024-01-11T14:35:08;0.80;63.00
21493;DHT22;10908;50.690;4.400;2024-01-11T14:37:35;0.90;62.80
21493;DHT22;10908;50.690;4.400;2024-01-11T14:40:01;0.90;62.80
21493;DHT22;10908;50.690;4.400;2024-01-11T14:42:28;0.90;62.80
21493;DHT22;10908;50.690;4.400;2024-01-11T14:44:54;0.90;62.90
21493;DHT22;10908;50.690;4.400;2024-01-11T14:47:21;1.00;63.00
21493;DHT22;10908;50.690;4.400;2024-01-11T14:49:47;1.00;62.80
21493;DHT22;10908;50.690;4.400;2024-01-11T14:52:12;0.90;62.80
21493;DHT22;10908;50.690;4.400;2024-01-11T14:54:39;1.10;63.00
21493;DHT22;10908;50.690;4.400;2024-01-11T14:57:05;1.10;62.60
21493;DHT22;10908;50.690;4.400;2024-01-11T14:59:31;1.10;62.70